Time;durP1;ratioP1;P1;durP2;ratioP2;P2;SDS_P1;SDS_P2;PMS_P1;PMS_P2;Temp;Humidity;BMP_temperature;BMP_pressure;BME280_temperature;BME280_humidity;BME280_pressure;Samples;Min_cycle;Max_cycle;Signal;HPM_P1;HPM_P2
2021/09/17 00:00:12;;;;;;;;;19.00;18.67;;;;;18.08;66.76;101533.13;5068968;27;53065;-77
2021/09/17 00:02:38;;;;;;;;;19.33;15.67;;;;;18.01;66.47;101519.81;5060662;27;46577;-77
2021/09/17 00:05:04;;;;;;;;;18.67;15.67;;;;;18.03;66.25;101528.69;5074566;27;45430;-77
2021/09/17 00:07:30;;;;;;;;;15.33;15.33;;;;;18.02;66.73;101534.06;5072903;27;45408;-77
2021/09/17 00:09:55;;;;;;;;;17.67;15.00;;;;;17.98;66.85;101525.19;5065902;27;45722;-77
2021/09/17 00:12:20;;;;;;;;;17.00;16.33;;;;;17.99;66.64;101529.63;5068800;27;46440;-77
2021/09/17 00:14:46;;;;;;;;;16.33;15.67;;;;;17.97;66.73;101522.53;5071514;27;57072;-77
2021/09/17 00:17:11;;;;;;;;;15.33;15.33;;;;;17.93;66.94;101518.09;5071276;28;45522;-77
2021/09/17 00:19:37;;;;;;;;;20.67;18.00;;;;;17.94;66.50;101518.06;5074746;27;45501;-78
2021/09/17 00:22:02;;;;;;;;;17.67;17.33;;;;;17.94;66.53;101515.41;5072890;27;54856;-77
2021/09/17 00:24:28;;;;;;;;;15.67;14.67;;;;;17.93;66.93;101512.75;5051423;28;45656;-77
2021/09/17 00:26:53;;;;;;;;;16.67;15.00;;;;;17.90;66.78;101512.78;5065575;27;46036;-77
2021/09/17 00:29:19;;;;;;;;;17.33;17.33;;;;;17.88;66.76;101507.44;5070421;27;45684;-77
2021/09/17 00:31:44;;;;;;;;;18.67;18.00;;;;;17.88;66.85;101517.25;5069557;27;57925;-78
2021/09/17 00:34:09;;;;;;;;;17.00;16.00;;;;;17.86;66.69;101521.72;5072831;27;54419;-77
2021/09/17 00:36:35;;;;;;;;;16.67;16.67;;;;;17.83;66.99;101517.28;5078048;27;53421;-77
2021/09/17 00:39:01;;;;;;;;;19.33;17.67;;;;;17.82;67.33;101517.31;5076889;27;45401;-77
2021/09/17 00:41:26;;;;;;;;;16.33;14.33;;;;;17.79;66.90;101510.22;5061759;28;47352;-78
2021/09/17 00:43:52;;;;;;;;;16.67;16.67;;;;;17.83;66.78;101511.06;5052056;28;45542;-77
2021/09/17 00:46:17;;;;;;;;;17.33;17.00;;;;;17.80;67.02;101504.84;5056086;28;51794;-76
2021/09/17 00:48:42;;;;;;;;;18.00;15.67;;;;;17.78;67.08;101501.28;5051074;28;45530;-77
2021/09/17 00:51:08;;;;;;;;;16.33;16.33;;;;;17.75;67.02;101504.00;5052394;28;59532;-77
2021/09/17 00:53:34;;;;;;;;;19.00;17.67;;;;;17.76;67.11;101515.56;5057531;28;45558;-77
2021/09/17 00:56:03;;;;;;;;;18.00;15.00;;;;;17.72;67.27;101504.00;5056619;28;46384;-78
2021/09/17 00:58:28;;;;;;;;;16.67;14.00;;;;;17.72;67.08;101501.34;5047833;28;45630;-77
2021/09/17 01:00:54;;;;;;;;;18.00;17.00;;;;;17.71;67.15;101501.31;5054285;28;55780;-77
2021/09/17 01:03:19;;;;;;;;;19.00;14.33;;;;;17.70;67.11;101496.88;5053373;28;45453;-77
2021/09/17 01:05:45;;;;;;;;;15.00;13.33;;;;;17.70;67.18;101497.78;5055426;28;55602;-77
2021/09/17 01:08:10;;;;;;;;;19.67;17.00;;;;;17.68;67.26;101494.22;5053125;28;51461;-77
2021/09/17 01:10:35;;;;;;;;;16.33;16.33;;;;;17.67;67.24;101495.09;5050281;28;60247;-77
2021/09/17 01:13:01;;;;;;;;;14.00;14.00;;;;;17.63;67.65;101480.03;5053489;28;45328;-77
2021/09/17 01:15:26;;;;;;;;;16.00;14.67;;;;;17.66;67.60;101487.13;5033396;28;52313;-77
2021/09/17 01:17:52;;;;;;;;;16.00;15.00;;;;;17.63;67.48;101488.03;5055767;28;49171;-77
2021/09/17 01:20:18;;;;;;;;;17.67;14.00;;;;;17.62;67.55;101483.56;5052266;28;46563;-78
2021/09/17 01:22:44;;;;;;;;;16.00;14.67;;;;;17.62;67.26;101485.34;5051076;28;45667;-78
2021/09/17 01:25:10;;;;;;;;;16.00;15.67;;;;;17.62;67.60;101486.25;5053315;28;45640;-77
2021/09/17 01:27:36;;;;;;;;;16.00;16.00;;;;;17.61;67.55;101476.47;5050451;28;47167;-77
2021/09/17 01:30:03;;;;;;;;;15.67;15.67;;;;;17.60;67.56;101473.81;5052685;28;62041;-77
2021/09/17 01:32:29;;;;;;;;;17.00;16.00;;;;;17.58;67.69;101478.25;5053002;28;45641;-77
2021/09/17 01:34:54;;;;;;;;;15.67;14.67;;;;;17.56;67.48;101464.94;5039167;28;53455;-78
2021/09/17 01:37:19;;;;;;;;;13.00;12.00;;;;;17.56;67.63;101462.25;5032813;28;54481;-78
2021/09/17 01:39:45;;;;;;;;;15.00;15.00;;;;;17.53;67.49;101467.66;5050833;28;45511;-78
2021/09/17 01:42:10;;;;;;;;;14.67;11.67;;;;;17.48;67.71;101457.00;5049857;28;55997;-77
2021/09/17 01:44:40;;;;;;;;;15.33;14.33;;;;;17.50;67.23;101462.31;5053642;28;57283;-77
2021/09/17 01:47:05;;;;;;;;;17.00;15.67;;;;;17.48;67.61;101457.00;5053492;28;45482;-78
2021/09/17 01:49:31;;;;;;;;;18.67;17.00;;;;;17.48;67.62;101456.13;5056847;28;46539;-78
2021/09/17 01:51:57;;;;;;;;;18.67;15.00;;;;;17.45;67.73;101457.00;5054713;28;45460;-77
2021/09/17 01:54:22;;;;;;;;;14.67;14.67;;;;;17.42;67.77;101443.69;5054897;28;45518;-77
2021/09/17 01:56:48;;;;;;;;;18.33;15.00;;;;;17.42;67.59;101450.81;5056581;28;51060;-77
2021/09/17 01:59:13;;;;;;;;;15.67;15.67;;;;;17.39;67.89;101443.69;5056078;28;60089;-77
2021/09/17 02:01:38;;;;;;;;;16.00;14.00;;;;;17.40;67.68;101444.59;5054587;28;59454;-77
2021/09/17 02:04:04;;;;;;;;;18.67;15.67;;;;;17.35;67.73;101443.72;5056499;28;56672;-77
2021/09/17 02:06:29;;;;;;;;;16.00;16.00;;;;;17.34;67.73;101437.50;5066427;28;45407;-77
2021/09/17 02:08:56;;;;;;;;;14.67;14.00;;;;;17.35;67.51;101444.63;5055408;28;57774;-76
2021/09/17 02:11:21;;;;;;;;;14.67;14.00;;;;;17.30;67.79;101433.09;5053070;28;45472;-76
2021/09/17 02:13:47;;;;;;;;;17.00;17.00;;;;;17.30;67.74;101427.75;5053026;28;45902;-77
2021/09/17 02:16:12;;;;;;;;;15.33;14.67;;;;;17.31;67.86;101436.63;5054158;28;55076;-77
2021/09/17 02:18:37;;;;;;;;;15.33;15.33;;;;;17.27;67.79;101422.44;5053968;28;55934;-77
2021/09/17 02:21:03;;;;;;;;;16.33;15.33;;;;;17.27;67.78;101434.00;5054346;28;56561;-77
2021/09/17 02:23:28;;;;;;;;;14.00;13.00;;;;;17.26;67.63;101416.22;5054321;28;46444;-78
2021/09/17 02:25:54;;;;;;;;;19.00;16.33;;;;;17.26;67.62;101426.03;5055528;28;47788;-76
2021/09/17 02:28:19;;;;;;;;;18.00;16.33;;;;;17.24;67.67;101430.47;5053771;28;45829;-77
2021/09/17 02:30:44;;;;;;;;;15.00;15.00;;;;;17.21;67.66;101422.50;5056608;28;52471;-77
2021/09/17 02:33:10;;;;;;;;;17.33;14.67;;;;;17.19;68.07;101419.81;5052907;28;55872;-76
2021/09/17 02:35:36;;;;;;;;;20.67;13.67;;;;;17.19;67.75;101422.47;5052793;28;45534;-78
2021/09/17 02:38:01;;;;;;;;;18.33;17.00;;;;;17.18;68.11;101427.84;5054424;28;47320;-77
2021/09/17 02:40:28;;;;;;;;;16.67;14.00;;;;;17.16;67.88;101424.31;5058415;27;45532;-76
2021/09/17 02:42:54;;;;;;;;;18.67;17.00;;;;;17.16;67.83;101416.31;5062762;27;45552;-77
2021/09/17 02:45:19;;;;;;;;;14.33;14.33;;;;;17.14;67.80;101410.94;5064702;27;45863;-78
2021/09/17 02:47:44;;;;;;;;;16.33;15.33;;;;;17.12;68.08;101403.88;5073473;28;45940;-77
2021/09/17 02:50:10;;;;;;;;;17.33;14.33;;;;;17.10;68.21;101410.97;5071062;27;45513;-77
2021/09/17 02:52:35;;;;;;;;;17.67;14.33;;;;;17.11;67.80;101415.44;5067818;28;54984;-78
2021/09/17 02:55:01;;;;;;;;;15.00;14.33;;;;;17.10;67.80;101409.22;5072766;28;45574;-77
2021/09/17 02:57:26;;;;;;;;;16.67;16.67;;;;;17.07;68.19;101409.22;5068407;27;46578;-78
2021/09/17 02:59:51;;;;;;;;;13.33;12.33;;;;;17.08;68.09;101403.00;5071021;27;49158;-77
2021/09/17 03:02:17;;;;;;;;;15.00;12.33;;;;;17.07;68.03;101408.34;5075375;27;45576;-77
2021/09/17 03:04:42;;;;;;;;;18.67;12.33;;;;;17.06;68.09;101412.81;5072705;27;56714;-77
2021/09/17 03:07:08;;;;;;;;;21.00;16.67;;;;;17.07;68.16;101403.00;5071045;27;47256;-77
2021/09/17 03:09:33;;;;;;;;;14.67;12.67;;;;;17.02;68.15;101397.69;5084246;27;45430;-77
2021/09/17 03:11:59;;;;;;;;;16.33;14.00;;;;;17.05;68.17;101400.38;5077095;27;46045;-77
2021/09/17 03:14:25;;;;;;;;;14.33;14.00;;;;;17.05;68.26;101395.03;5055198;28;53509;-77
2021/09/17 03:16:50;;;;;;;;;19.00;17.67;;;;;17.03;68.49;101395.00;5065658;27;45909;-77
2021/09/17 03:19:16;;;;;;;;;16.67;16.33;;;;;17.02;68.33;101395.03;5052041;28;45539;-77
2021/09/17 03:21:41;;;;;;;;;16.00;14.00;;;;;17.03;68.66;101388.78;5058588;28;45591;-78
2021/09/17 03:24:07;;;;;;;;;21.00;17.67;;;;;17.03;68.75;101379.00;5065321;27;48943;-76
2021/09/17 03:26:32;;;;;;;;;17.00;14.67;;;;;16.99;68.38;101373.69;5073931;27;46466;-77
2021/09/17 03:28:59;;;;;;;;;18.00;14.67;;;;;16.97;68.80;101370.16;5077545;27;56869;-77
2021/09/17 03:31:24;;;;;;;;;20.67;16.33;;;;;16.98;68.42;101371.94;5075343;27;46282;-77
2021/09/17 03:33:50;;;;;;;;;12.00;12.00;;;;;17.00;68.22;101379.03;5077473;27;45654;-77
2021/09/17 03:36:15;;;;;;;;;18.00;15.00;;;;;16.98;68.42;101378.16;5069587;27;55537;-77
2021/09/17 03:38:40;;;;;;;;;21.67;16.00;;;;;16.98;68.62;101379.94;5077048;27;58581;-76
2021/09/17 03:41:06;;;;;;;;;18.33;15.00;;;;;16.97;68.32;101375.50;5069756;27;56975;-76
2021/09/17 03:43:32;;;;;;;;;14.67;14.67;;;;;16.96;68.75;101376.41;5078816;27;45445;-77
2021/09/17 03:45:58;;;;;;;;;15.67;13.67;;;;;16.90;68.57;101366.66;5079082;27;47562;-78
2021/09/17 03:48:23;;;;;;;;;17.00;14.33;;;;;16.91;68.62;101368.44;5068074;28;58020;-77
2021/09/17 03:50:49;;;;;;;;;17.67;16.33;;;;;16.94;68.83;101381.75;5068069;27;45569;-76
2021/09/17 03:53:14;;;;;;;;;20.67;18.67;;;;;16.94;68.28;101380.88;5056819;27;46041;-78
2021/09/17 03:55:39;;;;;;;;;18.67;18.67;;;;;16.90;68.61;101376.44;5076111;27;59802;-77
2021/09/17 03:58:05;;;;;;;;;16.00;14.33;;;;;16.92;68.36;101382.66;5071018;27;45462;-78
2021/09/17 04:00:31;;;;;;;;;18.00;16.33;;;;;16.85;68.52;101371.13;5071820;27;47653;-77
2021/09/17 04:02:56;;;;;;;;;15.67;15.67;;;;;16.90;68.58;101373.78;5070846;27;45445;-76
2021/09/17 04:05:22;;;;;;;;;19.67;17.00;;;;;16.89;68.41;101372.00;5075341;27;59915;-76
2021/09/17 04:07:47;;;;;;;;;17.67;17.67;;;;;16.86;68.80;101378.25;5067544;27;55855;-77
2021/09/17 04:10:14;;;;;;;;;15.00;15.00;;;;;16.84;68.52;101379.16;5072761;27;45453;-76
2021/09/17 04:12:39;;;;;;;;;17.33;15.33;;;;;16.84;68.33;101369.38;5069191;27;45813;-77
2021/09/17 04:15:05;;;;;;;;;16.00;14.33;;;;;16.82;68.76;101376.47;5072990;27;46379;-77
2021/09/17 04:17:30;;;;;;;;;19.00;16.33;;;;;16.80;68.61;101369.41;5070534;27;45966;-77
2021/09/17 04:19:56;;;;;;;;;18.00;16.00;;;;;16.74;68.93;101363.19;5066870;28;46746;-77
2021/09/17 04:22:21;;;;;;;;;12.67;12.67;;;;;16.77;68.64;101380.94;5072782;27;45473;-77
2021/09/17 04:24:47;;;;;;;;;15.67;14.00;;;;;16.75;68.77;101372.09;5064813;27;61041;-78
2021/09/17 04:27:12;;;;;;;;;15.67;14.67;;;;;16.74;68.26;101375.66;5064290;27;53311;-77
2021/09/17 04:29:38;;;;;;;;;14.00;12.33;;;;;16.72;68.92;101370.34;5078891;27;46045;-77
2021/09/17 04:32:03;;;;;;;;;17.33;14.00;;;;;16.71;68.60;101365.88;5075864;27;45615;-77
2021/09/17 04:34:29;;;;;;;;;17.33;14.00;;;;;16.70;68.45;101371.19;5069093;27;46568;-77
2021/09/17 04:40:16;;;;;;;;;15.33;14.00;;;;;16.66;68.73;101372.97;5065584;27;45604;-78
2021/09/17 04:42:41;;;;;;;;;18.67;18.67;;;;;16.64;68.84;101372.09;5064826;27;45912;-80
2021/09/17 04:45:07;;;;;;;;;17.33;15.67;;;;;16.63;68.62;101367.69;5071725;28;47587;-78
2021/09/17 04:47:33;;;;;;;;;18.00;15.33;;;;;16.62;68.47;101373.91;5065727;27;45489;-78
2021/09/17 04:49:59;;;;;;;;;18.67;16.00;;;;;16.62;68.67;101373.91;5066869;27;54064;-79
2021/09/17 04:52:25;;;;;;;;;18.00;16.67;;;;;16.62;68.92;101383.66;5068985;27;46587;-77
2021/09/17 04:54:51;;;;;;;;;18.67;16.33;;;;;16.60;68.56;101374.78;5073648;27;47413;-78
2021/09/17 04:57:17;;;;;;;;;15.00;15.00;;;;;16.57;68.61;101365.03;5060620;27;45466;-78
2021/09/17 04:59:42;;;;;;;;;16.67;15.00;;;;;16.56;68.98;101359.69;5068756;27;50311;-78
2021/09/17 05:02:07;;;;;;;;;24.33;19.33;;;;;16.58;68.82;101372.16;5069190;27;51866;-79
2021/09/17 05:04:33;;;;;;;;;18.00;18.00;;;;;16.57;68.65;101373.03;5053666;28;51552;-82
2021/09/17 05:06:58;;;;;;;;;22.67;20.00;;;;;16.57;68.84;101373.03;5068799;27;60246;-79
2021/09/17 05:09:24;;;;;;;;;23.67;19.33;;;;;16.55;68.40;101371.25;5052563;28;45509;-76
2021/09/17 05:11:50;;;;;;;;;19.33;17.33;;;;;16.55;68.70;101369.47;5067644;28;45508;-76
2021/09/17 05:14:15;;;;;;;;;22.00;18.67;;;;;16.55;68.94;101371.25;5070955;28;55607;-75
2021/09/17 05:16:44;;;;;;;;;16.33;16.33;;;;;16.49;68.90;101356.19;5065164;28;46206;-74
2021/09/17 05:19:10;;;;;;;;;23.33;20.00;;;;;16.53;68.94;101362.41;5073792;27;45454;-75
2021/09/17 05:21:35;;;;;;;;;19.67;18.33;;;;;16.52;68.84;101366.84;5071379;27;45442;-75
2021/09/17 05:24:01;;;;;;;;;20.00;19.00;;;;;16.52;69.18;101364.19;5052004;28;46316;-76
2021/09/17 05:26:26;;;;;;;;;23.00;20.67;;;;;16.48;68.94;101357.97;5064589;28;45644;-77
2021/09/17 05:28:52;;;;;;;;;19.00;19.00;;;;;16.50;68.58;101364.16;5068974;27;56804;-76
2021/09/17 05:31:17;;;;;;;;;19.00;19.00;;;;;16.49;68.77;101364.19;5060629;28;45466;-76
2021/09/17 05:33:43;;;;;;;;;21.67;21.67;;;;;16.49;68.98;101367.72;5071635;28;47013;-76
2021/09/17 05:36:08;;;;;;;;;20.33;19.00;;;;;16.50;68.75;101363.28;5071876;28;45534;-76
2021/09/17 05:38:33;;;;;;;;;20.33;19.67;;;;;16.49;69.15;101361.53;5070725;28;55310;-76
2021/09/17 05:40:59;;;;;;;;;21.33;20.00;;;;;16.48;69.29;101365.97;5068927;28;45614;-77
2021/09/17 05:43:24;;;;;;;;;23.67;22.33;;;;;16.50;69.17;101366.84;5066094;28;46501;-76
2021/09/17 05:45:49;;;;;;;;;29.33;23.00;;;;;16.51;68.96;101359.72;5063928;28;45473;-78
2021/09/17 05:48:15;;;;;;;;;22.33;20.67;;;;;16.52;69.02;101357.97;5063437;27;51579;-76
2021/09/17 05:50:40;;;;;;;;;25.00;23.00;;;;;16.53;69.04;101354.41;5064142;28;54093;-76
2021/09/17 05:53:06;;;;;;;;;23.67;21.67;;;;;16.54;69.53;101359.72;5066890;28;59453;-82
2021/09/17 05:55:31;;;;;;;;;26.67;21.67;;;;;16.54;69.13;101359.72;5053479;28;55645;-82
2021/09/17 05:57:57;;;;;;;;;23.67;21.00;;;;;16.56;69.08;101365.91;5070376;28;46225;-78
2021/09/17 06:00:22;;;;;;;;;24.00;20.00;;;;;16.58;69.28;101364.16;5074621;27;45410;-77
2021/09/17 06:02:47;;;;;;;;;23.33;21.33;;;;;16.58;69.62;101365.94;5069251;27;46646;-77
2021/09/17 06:05:13;;;;;;;;;19.67;19.67;;;;;16.61;69.67;101369.44;5056076;27;59168;-80
2021/09/17 06:07:42;;;;;;;;;23.33;19.00;;;;;16.63;69.56;101356.13;5071670;28;53457;-78
2021/09/17 06:10:08;;;;;;;;;27.67;23.00;;;;;16.65;69.45;101363.22;5068953;28;45668;-78
2021/09/17 06:12:34;;;;;;;;;24.00;21.00;;;;;16.68;69.46;101355.22;5071167;28;46954;-78
2021/09/17 06:14:59;;;;;;;;;26.33;23.00;;;;;16.69;69.48;101354.31;5063749;27;45625;-77
2021/09/17 06:17:24;;;;;;;;;16.00;14.67;;;;;16.71;69.71;101355.19;5067541;27;45549;-77
2021/09/17 06:19:50;;;;;;;;;32.33;25.33;;;;;16.75;69.75;101356.09;5073042;28;46698;-74
2021/09/17 06:22:15;;;;;;;;;28.00;26.00;;;;;16.79;69.63;101354.28;5054964;27;45805;-74
2021/09/17 06:24:41;;;;;;;;;25.00;24.00;;;;;16.70;69.95;101341.84;5071974;28;45332;-75
2021/09/17 06:27:06;;;;;;;;;28.67;26.67;;;;;16.82;69.69;101347.13;5066766;28;45500;-75
2021/09/17 06:29:31;;;;;;;;;35.00;26.00;;;;;16.88;69.83;101351.53;5054081;27;45434;-75
2021/09/17 06:31:57;;;;;;;;;24.00;22.67;;;;;16.90;69.65;101345.31;5075692;27;46097;-75
2021/09/17 06:34:22;;;;;;;;;27.67;25.00;;;;;16.94;70.02;101343.53;5062967;27;45462;-75
2021/09/17 06:36:48;;;;;;;;;30.00;26.00;;;;;16.96;69.91;101339.06;5067964;27;45774;-76
2021/09/17 06:39:17;;;;;;;;;30.00;24.33;;;;;16.98;70.27;101339.91;5062949;28;45377;-79
2021/09/17 06:41:42;;;;;;;;;30.00;26.67;;;;;17.00;70.08;101339.03;5063987;28;45405;-76
2021/09/17 06:44:08;;;;;;;;;28.00;28.00;;;;;17.03;70.15;101338.97;5051287;28;45548;-78
2021/09/17 06:46:34;;;;;;;;;28.33;26.33;;;;;16.98;71.33;101334.59;5050359;28;45243;-75
2021/09/17 06:48:59;;;;;;;;;36.00;30.00;;;;;16.99;71.88;101336.34;5037333;28;45695;-74
2021/09/17 06:51:25;;;;;;;;;45.00;36.00;;;;;16.96;72.37;101341.72;5034905;28;47387;-74
2021/09/17 06:53:51;;;;;;;;;38.25;32.00;;;;;16.90;72.71;101341.78;5052547;28;45538;-78
2021/09/17 06:56:16;;;;;;;;;37.67;34.00;;;;;16.86;72.18;101345.34;5054489;28;45498;-76
2021/09/17 06:58:42;;;;;;;;;28.67;27.67;;;;;16.83;72.84;101343.59;5023984;28;45200;-78
2021/09/17 07:01:07;;;;;;;;;34.00;28.67;;;;;16.77;73.60;101339.16;5056611;28;46226;-74
2021/09/17 07:03:33;;;;;;;;;35.00;28.33;;;;;16.75;73.63;101348.09;5051732;28;45419;-75
2021/09/17 07:05:59;;;;;;;;;34.75;31.00;;;;;16.73;74.37;101344.56;5023874;28;45311;-74
2021/09/17 07:08:24;;;;;;;;;35.00;31.25;;;;;16.69;73.86;101329.44;5032661;28;45599;-75
2021/09/17 07:10:50;;;;;;;;;34.67;29.33;;;;;16.74;74.29;101336.53;5054128;28;45553;-75
2021/09/17 07:13:16;;;;;;;;;89.00;79.75;;;;;16.75;74.45;101332.97;5031697;28;45582;-80
2021/09/17 07:15:41;;;;;;;;;42.00;36.75;;;;;16.76;74.05;101331.19;5030249;28;45577;-75
2021/09/17 07:18:10;;;;;;;;;41.00;34.25;;;;;16.80;74.57;101330.28;5044712;28;45512;-78
2021/09/17 07:20:36;;;;;;;;;31.67;31.67;;;;;16.84;74.06;101332.03;5047039;28;46789;-76
2021/09/17 07:23:03;;;;;;;;;36.50;30.75;;;;;16.85;74.57;101327.56;5031207;28;45506;-75
2021/09/17 07:25:29;;;;;;;;;36.33;31.00;;;;;16.87;74.66;101333.78;5051801;28;45543;-79
2021/09/17 07:27:55;;;;;;;;;40.50;33.75;;;;;16.85;74.20;101319.56;5055397;28;45577;-74
2021/09/17 07:30:21;;;;;;;;;35.00;31.00;;;;;16.93;74.63;101325.72;5052118;28;57608;-78
2021/09/17 07:32:47;;;;;;;;;42.25;33.75;;;;;16.96;74.56;101325.72;5047144;28;45499;-74
2021/09/17 07:35:12;;;;;;;;;33.75;31.00;;;;;16.99;74.20;101333.69;5053346;28;46596;-75
2021/09/17 07:37:38;;;;;;;;;38.50;33.00;;;;;17.03;74.00;101330.97;5030458;28;45720;-73
2021/09/17 07:42:46;;;;;;;;;37.50;32.75;;;;;17.10;74.18;101337.19;4926359;26;45585;-74
2021/09/17 07:45:12;;;;;;;;;39.50;33.00;;;;;17.14;74.36;101333.56;4993324;28;45849;-77
2021/09/17 07:47:37;;;;;;;;;41.75;35.00;;;;;17.17;74.46;101333.56;5013299;28;45543;-73
2021/09/17 07:50:04;;;;;;;;;43.75;34.00;;;;;17.19;74.12;101329.06;5010381;28;46014;-73
2021/09/17 07:52:29;;;;;;;;;36.50;33.25;;;;;17.24;74.43;101332.59;5013458;28;45515;-73
2021/09/17 07:54:55;;;;;;;;;47.00;35.25;;;;;17.30;74.68;101342.34;4999599;28;54893;-73
2021/09/17 07:57:20;;;;;;;;;35.75;33.75;;;;;17.34;74.01;101333.41;5009768;28;47944;-75
2021/09/17 07:59:45;;;;;;;;;39.50;34.00;;;;;17.34;73.72;101329.84;5007549;28;59832;-73
2021/09/17 08:02:11;;;;;;;;;43.50;36.00;;;;;17.46;73.34;101337.75;5010385;28;55118;-73
2021/09/17 08:04:38;;;;;;;;;49.00;36.75;;;;;17.47;72.58;101335.09;5009252;28;51233;-75
2021/09/17 08:07:07;;;;;;;;;46.50;37.00;;;;;17.59;72.98;101339.41;4995777;28;45718;-73
2021/09/17 08:09:32;;;;;;;;;38.00;30.50;;;;;17.67;71.59;101339.31;5004886;28;45542;-75
2021/09/17 08:11:58;;;;;;;;;35.67;30.33;;;;;17.76;70.92;101342.81;5011615;28;46333;-77
2021/09/17 08:14:23;;;;;;;;;28.67;25.67;;;;;17.87;70.88;101334.69;5004311;28;45552;-75
2021/09/17 08:16:49;;;;;;;;;24.67;21.00;;;;;17.99;70.13;101334.53;5008952;28;53033;-75
2021/09/17 08:19:14;;;;;;;;;27.00;21.00;;;;;18.10;69.85;101341.56;5009062;28;46317;-77
2021/09/17 08:21:42;;;;;;;;;19.33;16.67;;;;;18.19;69.39;101342.34;5012468;28;59979;-74
2021/09/17 08:24:14;;;;;;;;;27.00;24.00;;;;;18.25;68.60;101339.59;5005664;28;45918;-77
2021/09/17 08:26:44;;;;;;;;;20.33;19.00;;;;;18.32;67.31;101333.28;5003224;28;47192;-75
2021/09/17 08:29:10;;;;;;;;;20.67;19.33;;;;;18.39;67.87;101334.06;5002111;28;45923;-74
2021/09/17 08:31:35;;;;;;;;;27.67;26.00;;;;;18.45;68.54;101327.75;5004438;28;45547;-74
2021/09/17 08:34:01;;;;;;;;;25.00;21.67;;;;;18.52;68.34;101332.09;5009354;28;45648;-76
2021/09/17 08:36:26;;;;;;;;;17.00;16.00;;;;;18.58;67.86;101327.53;5005496;28;48372;-73
2021/09/17 08:38:52;;;;;;;;;20.67;19.00;;;;;18.65;67.87;101332.84;5008911;28;55623;-73
2021/09/17 08:41:17;;;;;;;;;19.00;18.67;;;;;18.68;67.55;101327.47;5007262;28;45531;-76
2021/09/17 08:43:43;;;;;;;;;17.00;17.00;;;;;18.77;66.91;101332.69;5008613;28;50018;-74
2021/09/17 08:46:15;;;;;;;;;22.33;17.00;;;;;18.79;67.23;101318.34;5006656;28;45740;-75
2021/09/17 08:48:40;;;;;;;;;16.33;14.33;;;;;18.86;65.84;101329.88;5006344;28;45611;-74
2021/09/17 08:51:06;;;;;;;;;16.67;16.00;;;;;18.90;64.95;101331.56;5004340;28;45773;-75
2021/09/17 08:53:31;;;;;;;;;15.33;14.33;;;;;18.94;65.53;101313.69;5008260;28;45487;-73
2021/09/17 08:55:57;;;;;;;;;15.00;14.33;;;;;18.96;64.24;101326.16;5008949;28;45714;-74
2021/09/17 08:58:22;;;;;;;;;13.33;10.67;;;;;19.03;64.99;101321.56;5005743;28;45644;-72
2021/09/17 09:00:48;;;;;;;;;13.67;11.67;;;;;19.06;62.61;101316.16;5004703;28;45733;-74
2021/09/17 09:03:32;;;;;;;;;15.00;11.00;;;;;19.14;64.89;101313.38;5006845;28;45707;-73
2021/09/17 09:06:11;;;;;;;;;12.67;12.67;;;;;19.20;64.50;101322.19;5009029;28;45688;-74
2021/09/17 09:08:37;;;;;;;;;15.00;14.00;;;;;19.26;63.93;101315.84;5007328;28;47203;-73
2021/09/17 09:11:13;;;;;;;;;15.67;14.00;;;;;19.32;64.41;101323.75;5003727;28;45982;-74
2021/09/17 09:13:55;;;;;;;;;16.00;14.00;;;;;19.36;64.07;101306.72;5002433;28;45615;-73
2021/09/17 09:16:20;;;;;;;;;13.67;12.00;;;;;19.43;62.67;101319.09;5000689;28;45609;-73
2021/09/17 09:18:46;;;;;;;;;12.00;12.00;;;;;19.49;64.06;101318.09;4998121;28;46904;-73
2021/09/17 09:21:11;;;;;;;;;15.67;13.67;;;;;19.55;63.94;101312.66;4997617;28;59434;-73
2021/09/17 09:23:40;;;;;;;;;20.67;14.67;;;;;19.59;63.95;101314.38;4984266;28;45616;-74
2021/09/17 09:26:07;;;;;;;;;13.33;11.67;;;;;19.63;63.60;101314.31;5000942;28;45486;-73
2021/09/17 09:28:34;;;;;;;;;13.00;13.00;;;;;19.69;62.91;101310.63;4986854;28;46720;-73
2021/09/17 09:31:41;;;;;;;;;16.67;13.00;;;;;19.75;61.82;101304.25;5004924;28;45549;-74
2021/09/17 09:34:07;;;;;;;;;12.00;11.33;;;;;19.80;62.61;101313.97;4944875;28;46616;-74
2021/09/17 09:36:35;;;;;;;;;12.00;10.33;;;;;19.85;62.76;101300.50;4969543;28;46481;-74
2021/09/17 09:39:02;;;;;;;;;8.00;8.00;;;;;19.89;62.31;101302.19;5010363;28;46318;-74
2021/09/17 09:41:29;;;;;;;;;14.67;9.33;;;;;19.95;61.51;101303.88;5008904;28;45521;-75
2021/09/17 09:43:55;;;;;;;;;12.67;12.67;;;;;19.96;62.70;101292.22;4995963;28;45643;-74
2021/09/17 09:46:20;;;;;;;;;15.33;13.00;;;;;20.03;62.27;101302.81;5012216;28;45428;-74
2021/09/17 09:48:59;;;;;;;;;50.00;28.00;;;;;20.06;61.64;101300.06;5009427;28;47329;-73
2021/09/17 09:51:28;;;;;;;;;13.67;11.33;;;;;20.07;61.75;101295.56;4997197;28;45584;-74
2021/09/17 09:53:54;;;;;;;;;11.00;11.00;;;;;20.13;61.36;101300.78;5020174;28;45219;-74
2021/09/17 09:56:20;;;;;;;;;13.00;13.00;;;;;20.20;62.19;101302.47;5012142;28;45529;-73
2021/09/17 09:58:48;;;;;;;;;10.33;10.33;;;;;20.24;61.79;101296.13;5014014;28;45735;-74
2021/09/17 10:01:15;;;;;;;;;8.33;6.67;;;;;20.30;61.26;101287.06;5008549;28;45437;-74
2021/09/17 10:03:40;;;;;;;;;8.33;7.00;;;;;20.35;61.04;101293.22;5016608;28;45585;-73
2021/09/17 10:06:05;;;;;;;;;8.00;6.33;;;;;20.38;60.63;101285.06;4997711;28;45508;-76
2021/09/17 10:08:31;;;;;;;;;9.33;7.33;;;;;20.49;60.89;101287.53;4979728;28;46713;-74
2021/09/17 10:10:58;;;;;;;;;6.67;6.67;;;;;20.52;60.44;101287.50;5010851;28;60590;-73
2021/09/17 10:13:23;;;;;;;;;9.33;7.00;;;;;20.60;59.79;101283.69;4998744;28;45246;-74
2021/09/17 10:15:49;;;;;;;;;8.00;6.67;;;;;20.63;59.60;101280.94;5008959;28;45624;-74
2021/09/17 10:18:16;;;;;;;;;5.00;5.00;;;;;20.77;60.21;101279.72;4966396;28;59865;-74
2021/09/17 10:20:43;;;;;;;;;6.33;6.33;;;;;20.91;59.66;101288.34;4989587;28;45518;-77
2021/09/17 10:23:28;;;;;;;;;9.00;7.67;;;;;21.04;58.50;101283.53;5020357;28;45736;-74
2021/09/17 10:26:06;;;;;;;;;7.00;7.00;;;;;21.10;58.57;101278.91;5010778;28;45484;-73
2021/09/17 10:28:32;;;;;;;;;6.67;5.33;;;;;21.15;56.37;101285.06;5000708;28;47866;-74
2021/09/17 10:31:14;;;;;;;;;8.00;5.33;;;;;21.20;56.56;101279.56;5017889;28;45388;-74
2021/09/17 10:33:40;;;;;;;;;9.00;8.00;;;;;21.24;57.66;101281.22;5016780;28;45461;-75
2021/09/17 10:36:05;;;;;;;;;13.00;10.00;;;;;21.31;57.09;101277.50;5021056;28;45451;-74
2021/09/17 10:38:31;;;;;;;;;7.33;6.00;;;;;21.42;57.39;101275.41;5014958;28;46131;-74
2021/09/17 10:41:01;;;;;;;;;7.00;7.00;;;;;21.53;57.11;101267.06;5013343;28;45586;-74
2021/09/17 10:43:34;;;;;;;;;7.00;7.00;;;;;21.51;57.79;101268.00;5026471;28;45537;-75
2021/09/17 10:46:09;;;;;;;;;9.00;7.00;;;;;21.47;54.92;101274.41;5013298;28;45601;-74
2021/09/17 10:48:40;;;;;;;;;6.33;6.33;;;;;21.45;55.83;101261.88;5009350;28;47538;-74
2021/09/17 10:51:07;;;;;;;;;7.33;6.67;;;;;21.51;56.04;101262.66;5012939;28;45504;-74
2021/09/17 10:53:41;;;;;;;;;8.67;7.00;;;;;21.63;56.16;101265.03;5019119;28;45772;-74
2021/09/17 10:56:11;;;;;;;;;9.00;7.67;;;;;21.71;55.87;101265.66;5013375;28;45507;-75
2021/09/17 10:58:38;;;;;;;;;5.00;5.00;;;;;21.78;54.39;101256.50;5013468;28;47623;-74
2021/09/17 11:01:09;;;;;;;;;9.00;8.33;;;;;21.81;56.13;101250.16;5018248;28;45286;-74
2021/09/17 11:03:49;;;;;;;;;10.67;7.33;;;;;21.83;55.11;101261.75;5018111;28;46481;-74
2021/09/17 11:06:17;;;;;;;;;7.33;7.33;;;;;21.84;55.18;101248.28;5022598;28;46374;-74
2021/09/17 11:08:46;;;;;;;;;7.67;7.67;;;;;21.81;55.68;101247.47;5015708;28;46696;-74
2021/09/17 11:11:22;;;;;;;;;10.67;7.33;;;;;21.82;55.88;101249.22;5017181;28;45511;-75
2021/09/17 11:13:47;;;;;;;;;7.33;6.00;;;;;21.83;56.37;101249.19;5022285;28;45416;-74